Quick Links (Output Below):   Max & Min Temps   /   Climate Reports   /   Zone Forecasts
River Forecasts   /   Forestry Forecasts   /   Aviation Forecasts   /   Radars   /   Features

Terminal Aerodrome Forecast (Mountain Home)

Pick a Site:
Arkadelphia | El Dorado | Fayetteville | Fort Smith | Harrison | Highfill | Hot Springs | Jonesboro
Little Rock | Monticello | Mountain Home | Pine Bluff | Texarkana
 Forecast 

KBPK 271724Z 2718/2818 08010G20KT P6SM OVC100
     FM280000 09007KT P6SM VCSH SCT035 BKN050
     FM280900 07006KT P6SM VCSH SCT030 BKN050=


 Latest METARs (Observations) 
How to Decode METARs
20Z KBPK 271953Z AUTO 07015G21KT 10SM CLR 19/01 A2998 RMK AO2 SLP148
         T01890006
         
19Z KBPK 271853Z AUTO 09014G19KT 10SM CLR 18/00 A2999 RMK AO2 SLP151
         T01780000
         
18Z KBPK 271753Z AUTO 08010G18KT 10SM CLR 16/01 A3000 RMK AO2 SLP158
         T01610011 10161 20083 58022
         
17Z KBPK 271653Z AUTO 10011G20KT 10SM CLR 14/M01 A3005 RMK AO2 SLP175
         T01441006
         
16Z KBPK 271553Z AUTO 06011G19KT 030V090 10SM CLR 13/00 A3007 RMK AO2
         SLP181 T01280000
         
15Z KBPK 271453Z AUTO 05008KT 10SM CLR 11/01 A3007 RMK AO2 SLP183
         T01060011 51014
         
14Z KBPK 271353Z AUTO 07004KT 10SM CLR 09/03 A3007 RMK AO2 SLP182
         T00940033
         
13Z KBPK 271253Z AUTO 07005KT 10SM CLR 09/04 A3004 RMK AO2 SLP172
         T00890039
         
12Z KBPK 271153Z AUTO 07004KT 10SM CLR 08/03 A3003 RMK AO2 SLP167
         T00830033 10094 20078 51025
         
11Z KBPK 271053Z AUTO 00000KT 10SM CLR 08/04 A3002 RMK AO2 SLP163
         T00830039
         
***** Today's Observations (Above) *****


Back to Main Page
http://www.srh.noaa.gov/lzk/qfcst.php

USA.gov is the U.S. government's official web portal to all federal, state and local government web resources and services.